Estación Meteorológica Peña el Pijo (Robertgarden) [ 09/24/17 17:33:33 CEST ]

Fecha Hora Presion(HPa) Temp (°C) Humedad % Rocio (°C) Viento ( m/s) Direccion Lluvia 1Hora(mm) Lluvia 24H(mm) LLuvia Total(mm)
2017-Apr-22 01:02:21 1016.600 5.1 72 0.5         1357.67
2017-Apr-22 02:01:51 1015.900 4.6 75 0.5         1357.67
2017-Apr-22 03:01:42 1015.200 4.3 77 0.6         1357.67
2017-Apr-22 04:01:42 1014.600 4.0 79 0.7         1357.67
2017-Apr-22 05:01:41 1014.200 4.0 79 0.7         1357.67
2017-Apr-22 06:04:51 1013.800 3.2 79 -0.1         1357.67
2017-Apr-22 07:02:02 1013.700 1.7 79 -1.6         1357.67
2017-Apr-22 08:01:49 1014.000 0.9 81 -2.0         1357.67
2017-Apr-22 09:01:44 1014.200 6.5 78 2.9         1357.67
2017-Apr-22 10:01:44 1014.200 11.0 61 3.7 0.5 SSW     1357.67
2017-Apr-22 11:01:38 1013.800 11.4 52 1.9         1357.67
2017-Apr-22 12:01:59 1013.300 13.8 50 3.6         1357.67
2017-Apr-22 13:01:49 1012.900 13.9 50 3.7 0.5 ESE     1357.67
2017-Apr-22 14:01:46 1012.300 14.5 51 4.5 0.7 ESE     1357.67
2017-Apr-22 15:01:46 1011.700 17.4 48 6.2         1357.67
2017-Apr-22 16:01:39 1011.000 18.8 44 6.2         1357.67
2017-Apr-22 17:01:32 1010.500 19.5 44 6.9         1357.67
2017-Apr-22 18:01:48 1010.100 18.3 44 5.8 0.7 S     1357.67
2017-Apr-22 19:01:41 1010.100 17.3 46 5.8 1.0 SW     1357.67
2017-Apr-22 20:02:03 1009.700 15.1 51 5.0         1357.67
2017-Apr-22 21:01:43 1009.800 13.1 58 5.0         1357.67
2017-Apr-22 22:01:58 1010.300 10.6 63 3.8         1357.67
2017-Apr-22 23:01:27 1010.700 8.6 69 3.2         1357.67

Temperatura Máxima:19°    Temperatura Mínima:
Presión Máxima:1016.600 Hpa    Presión Mínima:1009.700 Hpa


Volver